createdAt,value
2023-03-31T00:01:08.080Z,1.42
2023-03-31T00:03:38.942Z,1.38
2023-03-31T00:06:06.332Z,1.42
2023-03-31T00:08:38.111Z,1.40
2023-03-31T00:11:10.087Z,1.65
2023-03-31T00:13:37.159Z,1.45
2023-03-31T00:16:07.950Z,1.60
2023-03-31T00:18:35.925Z,1.42
2023-03-31T00:21:25.110Z,1.60
2023-03-31T00:23:58.436Z,1.13
2023-03-31T00:26:26.631Z,1.30
2023-03-31T00:28:54.145Z,1.17
2023-03-31T00:31:22.256Z,1.10
2023-03-31T00:33:50.572Z,1.20
2023-03-31T00:36:43.823Z,1.20
2023-03-31T00:39:11.288Z,1.30
2023-03-31T00:41:40.601Z,1.60
2023-03-31T00:44:23.303Z,3.30
2023-03-31T00:47:18.048Z,1.52
2023-03-31T00:49:53.388Z,1.73
2023-03-31T00:52:23.912Z,1.45
2023-03-31T00:55:05.731Z,1.08
2023-03-31T00:57:39.370Z,1.30
2023-03-31T01:00:19.491Z,1.25
2023-03-31T01:02:56.255Z,1.50
2023-03-31T01:05:27.721Z,1.10
2023-03-31T01:07:56.312Z,1.33
2023-03-31T01:10:23.388Z,1.50
2023-03-31T01:12:54.489Z,1.70
2023-03-31T01:15:22.253Z,1.63
2023-03-31T01:17:53.531Z,1.55
2023-03-31T01:20:33.126Z,1.73
2023-03-31T01:23:32.460Z,2.20
2023-03-31T01:26:27.898Z,2.25
2023-03-31T01:29:01.623Z,1.80
2023-03-31T01:32:02.462Z,2.20
2023-03-31T01:34:54.201Z,2.30
2023-03-31T01:37:47.915Z,2.53
2023-03-31T01:40:14.638Z,1.98
2023-03-31T01:43:05.148Z,2.15
2023-03-31T01:45:40.872Z,1.52
2023-03-31T01:48:18.989Z,1.70
2023-03-31T01:50:57.120Z,1.70
2023-03-31T01:53:31.052Z,1.20
2023-03-31T01:56:18.358Z,1.48
2023-03-31T01:58:55.497Z,1.35
2023-03-31T02:01:31.826Z,1.27
2023-03-31T02:04:09.870Z,1.00
2023-03-31T02:06:41.039Z,1.55
2023-03-31T02:09:16.778Z,1.13
2023-03-31T02:11:45.708Z,1.40
2023-03-31T02:14:19.228Z,1.33
2023-03-31T02:16:50.350Z,1.48
2023-03-31T02:19:20.946Z,1.50
2023-03-31T02:21:49.948Z,2.00
2023-03-31T02:24:20.096Z,1.23
2023-03-31T02:27:01.315Z,1.55
2023-03-31T02:29:28.498Z,1.50
2023-03-31T02:32:19.895Z,1.63
2023-03-31T02:34:47.096Z,3.25
2023-03-31T02:37:14.642Z,10.85
2023-03-31T02:39:46.282Z,2.40
2023-03-31T02:42:14.344Z,1.65
2023-03-31T02:44:41.162Z,2.00
2023-03-31T02:47:11.657Z,1.58
2023-03-31T02:49:42.709Z,1.27
2023-03-31T02:52:12.881Z,1.20
2023-03-31T02:55:02.188Z,1.30
2023-03-31T02:57:50.827Z,1.38
2023-03-31T03:00:53.393Z,2.05
2023-03-31T03:03:32.497Z,1.52
2023-03-31T03:06:27.941Z,1.65
2023-03-31T03:09:19.295Z,1.73
2023-03-31T03:11:54.620Z,1.50
2023-03-31T03:14:36.310Z,1.48
2023-03-31T03:17:10.333Z,1.80
2023-03-31T03:19:37.867Z,1.38
2023-03-31T03:22:06.391Z,2.13
2023-03-31T03:24:36.678Z,1.48
2023-03-31T03:27:04.162Z,1.48
2023-03-31T03:29:31.011Z,1.33
2023-03-31T03:31:58.160Z,1.45
2023-03-31T03:34:26.002Z,2.03
2023-03-31T03:36:52.766Z,1.95
2023-03-31T03:39:19.471Z,1.90
2023-03-31T03:41:47.230Z,1.75
2023-03-31T03:44:14.237Z,1.40
2023-03-31T03:46:41.089Z,1.67
2023-03-31T03:49:08.201Z,1.92
2023-03-31T03:51:35.858Z,2.20
2023-03-31T03:54:05.993Z,2.28
2023-03-31T03:56:33.345Z,2.20
2023-03-31T03:59:00.603Z,2.75
2023-03-31T04:01:27.440Z,2.10
2023-03-31T04:03:54.431Z,3.10
2023-03-31T04:06:21.424Z,3.40
2023-03-31T04:08:56.104Z,3.30
2023-03-31T04:11:23.378Z,3.30
2023-03-31T04:13:50.334Z,3.55
2023-03-31T04:16:20.272Z,2.85
2023-03-31T04:18:49.004Z,3.25
2023-03-31T04:21:24.039Z,2.78
2023-03-31T04:24:04.734Z,2.75
2023-03-31T04:26:44.797Z,2.95
2023-03-31T04:29:13.283Z,3.65
2023-03-31T04:31:43.171Z,4.10
2023-03-31T04:34:15.485Z,5.00
2023-03-31T04:36:47.897Z,5.70
2023-03-31T04:39:27.219Z,3.85
2023-03-31T04:41:54.527Z,3.45
2023-03-31T04:44:21.325Z,3.22
2023-03-31T04:46:48.188Z,4.05
2023-03-31T04:49:15.483Z,4.80
2023-03-31T04:51:42.273Z,5.43
2023-03-31T04:54:09.513Z,4.50
2023-03-31T04:56:36.362Z,4.30
2023-03-31T04:59:04.335Z,4.38
2023-03-31T05:01:36.750Z,4.35
2023-03-31T05:04:11.783Z,3.33
2023-03-31T05:07:21.544Z,3.13
2023-03-31T05:09:57.866Z,3.35
2023-03-31T05:12:26.000Z,4.07
2023-03-31T05:14:57.226Z,3.20
2023-03-31T05:17:25.991Z,2.90
2023-03-31T05:19:56.122Z,2.42
2023-03-31T05:22:25.888Z,2.65
2023-03-31T05:24:54.326Z,3.00
2023-03-31T05:27:35.206Z,3.30
2023-03-31T05:30:10.828Z,2.85
2023-03-31T05:32:37.781Z,3.25
2023-03-31T05:35:05.528Z,2.95
2023-03-31T05:37:32.878Z,2.58
2023-03-31T05:40:01.134Z,2.08
2023-03-31T05:42:28.338Z,2.70
2023-03-31T05:44:55.382Z,3.20
2023-03-31T05:47:23.639Z,2.60
2023-03-31T05:49:53.548Z,2.22
2023-03-31T05:52:20.678Z,2.38
2023-03-31T05:54:52.719Z,1.90
2023-03-31T05:57:29.553Z,2.38
2023-03-31T06:00:02.625Z,1.88
2023-03-31T06:02:34.061Z,2.13
2023-03-31T06:05:05.086Z,2.60
2023-03-31T06:07:32.226Z,2.25
2023-03-31T06:10:07.752Z,3.00
2023-03-31T06:12:40.233Z,4.20
2023-03-31T06:17:56.661Z,3.92
2023-03-31T06:20:28.210Z,4.93
2023-03-31T06:22:55.975Z,4.15
2023-03-31T06:25:25.583Z,6.28
2023-03-31T06:27:53.511Z,5.30
2023-03-31T06:30:20.550Z,4.88
2023-03-31T06:32:47.929Z,4.65
2023-03-31T06:35:15.608Z,5.10
2023-03-31T06:37:43.065Z,6.47
2023-03-31T06:40:12.549Z,5.20
2023-03-31T06:42:40.387Z,4.72
2023-03-31T06:45:10.967Z,5.28
2023-03-31T06:47:42.356Z,4.97
2023-03-31T06:50:10.220Z,5.70
2023-03-31T06:52:37.218Z,6.15
2023-03-31T06:55:04.731Z,6.05
2023-03-31T06:57:34.434Z,6.35
2023-03-31T07:00:02.202Z,5.40
2023-03-31T07:02:29.455Z,6.00
2023-03-31T07:05:02.670Z,5.53
2023-03-31T07:07:33.412Z,6.05
2023-03-31T07:10:00.811Z,4.95
2023-03-31T07:12:27.755Z,4.45
2023-03-31T07:14:54.998Z,5.25
2023-03-31T07:17:26.806Z,4.63
2023-03-31T07:19:56.316Z,4.45
2023-03-31T07:22:23.376Z,4.45
2023-03-31T07:24:50.227Z,5.13
2023-03-31T07:27:17.449Z,4.43
2023-03-31T07:30:03.922Z,4.10
2023-03-31T07:35:16.047Z,3.88
2023-03-31T07:37:51.101Z,3.92
2023-03-31T07:40:27.263Z,3.25
2023-03-31T07:42:55.566Z,3.72
2023-03-31T07:45:26.302Z,3.25
2023-03-31T07:47:54.051Z,2.95
2023-03-31T07:50:29.466Z,3.45
2023-03-31T07:53:04.044Z,3.13
2023-03-31T07:55:33.342Z,2.85
2023-03-31T07:58:00.167Z,3.00
2023-03-31T08:00:27.469Z,4.15
2023-03-31T08:03:22.300Z,3.28
2023-03-31T08:05:52.696Z,4.13
2023-03-31T08:08:24.946Z,3.03
2023-03-31T08:10:52.456Z,2.92
2023-03-31T08:13:19.622Z,2.75
2023-03-31T08:15:47.125Z,12.77
2023-03-31T08:18:14.463Z,2.83
2023-03-31T08:20:41.312Z,2.65
2023-03-31T08:23:12.103Z,2.95
2023-03-31T08:25:39.175Z,2.40
2023-03-31T08:28:17.742Z,2.47
2023-03-31T08:30:47.970Z,1.92
2023-03-31T08:33:23.644Z,1.70
2023-03-31T08:35:57.563Z,1.67
2023-03-31T08:38:28.929Z,1.63
2023-03-31T08:41:06.092Z,2.00
2023-03-31T08:43:39.570Z,2.20
2023-03-31T08:46:25.604Z,1.83
2023-03-31T08:48:56.413Z,1.65
2023-03-31T08:51:28.656Z,2.17
2023-03-31T08:54:03.999Z,1.80
2023-03-31T08:56:42.969Z,1.75
2023-03-31T08:59:39.626Z,2.20
2023-03-31T09:02:33.009Z,2.45
2023-03-31T09:05:19.115Z,1.80
2023-03-31T09:08:43.475Z,1.58
2023-03-31T09:11:16.112Z,2.65
2023-03-31T09:14:16.823Z,2.60
2023-03-31T09:17:21.967Z,2.30
2023-03-31T09:19:57.066Z,1.90
2023-03-31T09:22:31.706Z,1.88
2023-03-31T09:25:10.803Z,1.60
2023-03-31T09:27:45.504Z,1.88
2023-03-31T09:30:23.580Z,1.73
2023-03-31T09:32:57.887Z,1.65
2023-03-31T09:35:27.563Z,1.65
2023-03-31T09:40:57.817Z,1.70
2023-03-31T09:43:35.247Z,1.98
2023-03-31T09:46:55.369Z,1.98
2023-03-31T09:49:26.491Z,1.80
2023-03-31T09:52:19.849Z,3.00
2023-03-31T09:55:38.414Z,2.53
2023-03-31T09:58:11.686Z,2.00
2023-03-31T10:00:53.334Z,2.63
2023-03-31T10:03:23.621Z,2.13
2023-03-31T10:05:53.123Z,2.75
2023-03-31T10:08:30.762Z,2.00
2023-03-31T10:11:09.663Z,2.03
2023-03-31T10:13:50.046Z,2.17
2023-03-31T10:16:32.640Z,4.93
2023-03-31T10:19:38.038Z,2.08
2023-03-31T10:22:20.884Z,3.15
2023-03-31T10:24:55.253Z,2.08
2023-03-31T10:27:30.502Z,1.63
2023-03-31T10:30:04.203Z,1.75
2023-03-31T10:32:33.330Z,1.55
2023-03-31T10:35:07.445Z,1.63
2023-03-31T10:37:37.957Z,1.67
2023-03-31T10:40:25.180Z,1.42
2023-03-31T10:43:03.583Z,1.50
2023-03-31T10:45:43.838Z,1.63
2023-03-31T10:48:31.583Z,1.60
2023-03-31T10:51:28.295Z,1.02
2023-03-31T10:54:00.702Z,1.33
2023-03-31T10:56:37.839Z,1.60
2023-03-31T10:59:32.631Z,1.40
2023-03-31T11:02:05.448Z,1.40
2023-03-31T11:04:38.804Z,1.58
2023-03-31T11:11:19.706Z,1.77
2023-03-31T11:13:59.481Z,1.77
2023-03-31T11:16:44.459Z,1.30
2023-03-31T11:19:33.318Z,1.38
2023-03-31T11:22:42.298Z,1.15
2023-03-31T11:25:49.529Z,1.30
2023-03-31T11:29:41.380Z,1.98
2023-03-31T11:32:46.595Z,1.42
2023-03-31T11:35:44.300Z,1.38
2023-03-31T11:38:44.759Z,1.05
2023-03-31T11:41:21.197Z,1.33
2023-03-31T11:43:58.626Z,1.50
2023-03-31T11:46:52.965Z,1.45
2023-03-31T11:53:22.785Z,1.13
2023-03-31T11:55:54.157Z,1.77
2023-03-31T11:58:45.396Z,1.45
2023-03-31T12:01:28.537Z,1.50
2023-03-31T12:04:14.282Z,1.23
2023-03-31T12:06:43.270Z,1.40
2023-03-31T12:09:20.815Z,1.40
2023-03-31T12:12:03.643Z,1.20
2023-03-31T12:14:37.224Z,1.10
2023-03-31T12:17:23.226Z,1.50
2023-03-31T12:20:07.677Z,1.42
2023-03-31T12:22:44.520Z,1.60
2023-03-31T12:25:16.906Z,1.38
2023-03-31T12:27:54.800Z,1.23
2023-03-31T12:30:48.846Z,1.40
2023-03-31T12:33:41.848Z,1.80
2023-03-31T12:36:40.100Z,1.42
2023-03-31T12:39:30.564Z,1.30
2023-03-31T12:42:21.822Z,2.05
2023-03-31T12:45:29.550Z,1.80
2023-03-31T12:48:29.367Z,1.63
2023-03-31T12:50:56.295Z,1.30
2023-03-31T12:53:38.911Z,1.38
2023-03-31T12:56:06.725Z,1.13
2023-03-31T12:58:43.779Z,1.27
2023-03-31T13:01:26.128Z,1.20
2023-03-31T13:04:24.534Z,1.05
2023-03-31T13:06:56.278Z,1.83
2023-03-31T13:09:40.399Z,1.50
2023-03-31T13:12:09.729Z,1.40
2023-03-31T13:14:42.656Z,1.83
2023-03-31T13:17:23.986Z,1.52
2023-03-31T13:19:56.892Z,1.70
2023-03-31T13:22:34.811Z,1.60
2023-03-31T13:25:43.031Z,1.15
2023-03-31T13:28:19.301Z,1.40
2023-03-31T13:30:52.055Z,1.00
2023-03-31T13:33:18.884Z,1.42
2023-03-31T13:35:50.432Z,1.73
2023-03-31T13:38:52.434Z,1.05
2023-03-31T13:50:14.877Z,1.40
2023-03-31T13:52:53.375Z,1.50
2023-03-31T13:55:55.614Z,2.03
2023-03-31T13:58:47.470Z,1.27
2023-03-31T14:04:39.599Z,1.40
2023-03-31T14:07:47.997Z,1.38
2023-03-31T14:10:45.761Z,1.40
2023-03-31T14:13:17.723Z,1.80
2023-03-31T14:15:54.135Z,1.30
2023-03-31T14:18:31.980Z,1.60
2023-03-31T14:21:22.308Z,1.48
2023-03-31T14:24:01.503Z,1.58
2023-03-31T14:27:19.144Z,1.40
2023-03-31T14:30:13.214Z,1.80
2023-03-31T14:33:14.457Z,1.50
2023-03-31T14:35:56.127Z,1.55
2023-03-31T14:38:24.384Z,1.20
2023-03-31T14:40:57.758Z,1.55
2023-03-31T14:43:29.172Z,1.83
2023-03-31T14:46:01.173Z,1.33
2023-03-31T14:48:45.685Z,1.10
2023-03-31T14:51:16.197Z,1.83
2023-03-31T14:53:47.070Z,1.30
2023-03-31T14:56:20.502Z,1.50
2023-03-31T14:58:51.125Z,1.15
2023-03-31T15:01:28.645Z,1.80
2023-03-31T15:03:59.485Z,1.45
2023-03-31T15:06:26.942Z,1.38
2023-03-31T15:08:58.337Z,1.20
2023-03-31T15:11:29.050Z,1.33
2023-03-31T15:14:05.162Z,1.65
2023-03-31T15:16:52.146Z,1.33
2023-03-31T15:19:31.814Z,1.17
2023-03-31T15:22:02.386Z,1.27
2023-03-31T15:24:30.241Z,1.40
2023-03-31T15:27:10.950Z,1.20
2023-03-31T15:29:43.349Z,1.40
2023-03-31T15:32:23.135Z,1.40
2023-03-31T15:38:10.808Z,1.40
2023-03-31T15:40:46.439Z,1.25
2023-03-31T15:43:33.139Z,1.75
2023-03-31T15:46:01.509Z,1.52
2023-03-31T15:48:34.702Z,1.48
2023-03-31T15:51:13.545Z,1.30
2023-03-31T15:53:52.871Z,1.83
2023-03-31T15:56:33.519Z,1.50
2023-03-31T15:59:05.212Z,1.60
2023-03-31T16:01:44.236Z,1.67
2023-03-31T16:04:33.614Z,1.42
2023-03-31T16:08:09.641Z,1.67
2023-03-31T16:10:37.003Z,1.33
2023-03-31T16:13:27.315Z,1.65
2023-03-31T16:15:56.662Z,1.35
2023-03-31T16:18:36.331Z,1.55
2023-03-31T16:21:07.847Z,1.80
2023-03-31T16:24:40.340Z,1.90
2023-03-31T16:27:22.843Z,1.80
2023-03-31T16:29:49.998Z,1.65
2023-03-31T16:38:57.944Z,4.15
2023-03-31T16:51:02.185Z,5.32
2023-03-31T16:53:42.202Z,6.90
2023-03-31T16:56:12.911Z,6.13
2023-03-31T17:10:16.401Z,3.25
2023-03-31T17:12:43.586Z,2.30
2023-03-31T17:15:11.532Z,2.58
2023-03-31T17:17:39.802Z,1.92
2023-03-31T17:20:08.789Z,2.20
2023-03-31T17:22:36.603Z,1.70
2023-03-31T17:25:04.832Z,1.90
2023-03-31T17:27:32.862Z,2.28
2023-03-31T17:29:59.681Z,2.60
2023-03-31T17:32:27.804Z,2.70
2023-03-31T17:34:54.809Z,2.72
2023-03-31T17:37:21.712Z,2.88
2023-03-31T17:39:48.658Z,2.45
2023-03-31T17:42:17.812Z,2.55
2023-03-31T17:44:46.837Z,1.80
2023-03-31T17:47:20.911Z,1.90
2023-03-31T17:49:49.069Z,2.03
2023-03-31T17:52:16.866Z,2.03
2023-03-31T17:54:43.648Z,2.15
2023-03-31T17:57:13.368Z,1.85
2023-03-31T17:59:40.686Z,1.75
2023-03-31T18:02:08.320Z,2.40
2023-03-31T18:04:37.113Z,2.10
2023-03-31T18:07:04.290Z,1.73
2023-03-31T18:09:31.513Z,3.33
2023-03-31T18:12:01.967Z,1.77
2023-03-31T18:14:28.808Z,2.55
2023-03-31T18:16:56.630Z,2.90
2023-03-31T18:19:24.846Z,2.88
2023-03-31T18:21:51.787Z,4.25
2023-03-31T18:24:20.338Z,5.10
2023-03-31T18:26:47.586Z,7.15
2023-03-31T18:29:14.763Z,7.20
2023-03-31T18:31:42.030Z,6.38
2023-03-31T18:34:09.458Z,4.63
2023-03-31T18:36:36.365Z,4.03
2023-03-31T18:39:04.449Z,2.30
2023-03-31T18:41:48.853Z,1.90
2023-03-31T18:44:18.355Z,2.03
2023-03-31T18:46:46.439Z,2.53
2023-03-31T18:52:06.789Z,3.28
2023-03-31T18:54:40.527Z,3.05
2023-03-31T18:57:13.219Z,2.78
2023-03-31T18:59:40.319Z,1.70
2023-03-31T19:02:07.716Z,2.33
2023-03-31T19:04:34.834Z,2.28
2023-03-31T19:07:02.075Z,2.70
2023-03-31T19:09:30.256Z,2.53
2023-03-31T19:12:12.304Z,2.15
2023-03-31T19:14:46.174Z,3.63
2023-03-31T19:17:13.508Z,7.03
2023-03-31T19:19:40.581Z,11.65
2023-03-31T19:24:59.964Z,3.20
2023-03-31T19:27:28.435Z,10.60
2023-03-31T19:30:00.020Z,10.93
2023-03-31T19:32:27.550Z,6.40
2023-03-31T19:34:55.298Z,3.88
2023-03-31T19:37:22.495Z,1.83
2023-03-31T19:39:49.496Z,1.88
2023-03-31T19:42:22.736Z,2.08
2023-03-31T19:44:49.943Z,3.08
2023-03-31T19:47:16.818Z,1.92
2023-03-31T19:49:43.928Z,2.10
2023-03-31T19:52:11.326Z,2.40
2023-03-31T19:54:38.124Z,2.50
2023-03-31T19:57:17.302Z,3.40
2023-03-31T19:59:44.806Z,3.20
2023-03-31T20:04:41.995Z,1.90
2023-03-31T20:07:16.189Z,2.40
2023-03-31T20:09:43.685Z,2.00
2023-03-31T20:12:11.109Z,1.75
2023-03-31T20:14:41.016Z,2.10
2023-03-31T20:17:10.831Z,1.55
2023-03-31T20:19:47.886Z,2.30
2023-03-31T20:22:15.296Z,2.33
2023-03-31T20:24:47.848Z,2.72
2023-03-31T20:27:14.818Z,2.20
2023-03-31T20:29:42.033Z,2.20
2023-03-31T20:32:12.044Z,1.70
2023-03-31T20:34:39.376Z,1.20
2023-03-31T20:37:06.419Z,2.05
2023-03-31T20:39:33.560Z,1.60
2023-03-31T20:42:00.673Z,1.45
2023-03-31T20:44:28.659Z,1.70
2023-03-31T20:46:56.719Z,1.48
2023-03-31T20:49:23.746Z,1.70
2023-03-31T20:51:51.273Z,1.17
2023-03-31T20:54:18.508Z,1.63
2023-03-31T20:57:08.863Z,1.73
2023-03-31T20:59:38.812Z,1.30
2023-03-31T21:02:06.364Z,1.67
2023-03-31T21:04:33.538Z,1.00
2023-03-31T21:07:01.255Z,1.20
2023-03-31T21:09:28.631Z,1.30
2023-03-31T21:11:55.846Z,1.40
2023-03-31T21:14:25.510Z,1.33
2023-03-31T21:16:55.067Z,1.33
2023-03-31T21:19:22.274Z,1.25
2023-03-31T21:21:49.318Z,1.00
2023-03-31T21:24:16.382Z,1.48
2023-03-31T21:26:53.142Z,1.77
2023-03-31T21:29:42.833Z,1.50
2023-03-31T21:32:15.312Z,2.00
2023-03-31T21:34:45.924Z,1.60
2023-03-31T21:37:19.995Z,1.98
2023-03-31T21:39:47.344Z,1.90
2023-03-31T21:42:14.658Z,1.63
2023-03-31T21:45:08.639Z,1.58
2023-03-31T21:47:36.646Z,2.17
2023-03-31T21:50:03.501Z,1.67
2023-03-31T21:52:30.334Z,1.58
2023-03-31T21:54:58.216Z,1.70
2023-03-31T21:57:25.245Z,1.20
2023-03-31T21:59:54.812Z,1.20
2023-03-31T22:02:23.562Z,1.63
2023-03-31T22:04:50.986Z,1.73
2023-03-31T22:07:18.276Z,1.45
2023-03-31T22:09:48.813Z,1.40
2023-03-31T22:12:15.745Z,1.73
2023-03-31T22:14:42.670Z,1.50
2023-03-31T22:17:10.268Z,1.30
2023-03-31T22:19:37.612Z,0.90
2023-03-31T22:22:04.828Z,1.48
2023-03-31T22:24:32.108Z,1.10
2023-03-31T22:26:59.139Z,1.65
2023-03-31T22:29:25.864Z,1.15
2023-03-31T22:31:53.126Z,1.35
2023-03-31T22:34:20.605Z,1.38
2023-03-31T22:36:47.616Z,1.45
2023-03-31T22:39:15.716Z,1.48
2023-03-31T22:41:43.502Z,1.58
2023-03-31T22:44:10.613Z,0.98
2023-03-31T22:46:39.374Z,1.20
2023-03-31T22:49:06.671Z,1.65
2023-03-31T22:51:34.788Z,0.90
2023-03-31T22:54:01.982Z,1.88
2023-03-31T22:56:29.087Z,1.42
2023-03-31T22:58:57.963Z,1.67
2023-03-31T23:01:25.129Z,1.63
2023-03-31T23:03:52.771Z,1.58
2023-03-31T23:06:19.498Z,1.40
2023-03-31T23:08:49.053Z,1.20
2023-03-31T23:11:18.907Z,1.48
2023-03-31T23:13:46.296Z,1.35
2023-03-31T23:16:19.806Z,1.25
2023-03-31T23:18:48.621Z,1.75
2023-03-31T23:25:41.601Z,1.10
2023-03-31T23:28:08.820Z,1.30
2023-03-31T23:30:36.258Z,1.10
2023-03-31T23:33:03.265Z,1.55
2023-03-31T23:35:30.368Z,1.23
2023-03-31T23:37:57.694Z,1.52
2023-03-31T23:40:24.917Z,1.65
2023-03-31T23:42:51.847Z,1.95
2023-03-31T23:45:19.357Z,1.67
2023-03-31T23:47:46.566Z,1.60
2023-03-31T23:50:13.924Z,1.30
2023-03-31T23:52:41.080Z,1.55
2023-03-31T23:55:08.356Z,1.45
2023-03-31T23:57:35.447Z,1.50
